Aktualne dane pomiarowe

Uwaga, wersja testowa! Automatyczne pobieranie danych za pomocą narzędzi lub skryptów to umożliwiających jest zabronione.

Dane meteo z obszaru Polski uzyskane na podstawie depesz SYNOP pobieranych co godzinę z NWS. Najedź myszką na symbol przedstawiony w tabeli, aby uzyskać informacje co do jego znaczenia. Prosimy pamiętać, że to testowa wersja strony, która jeszcze nie jest ukończona. Stworzono również jest krótki FAQ dotyczący korzystania z tej podstrony Anomalie temperatury w chwili obecnej odniesione są do okresu referencyjnego 1951-2016. Okres ten będzie później zmieniony na 1981-2010. Kliknij ikonę aby pobrać plik CSV. Kliknij ikonę aby wygenerować mapę synoptyczną dla danego terminu.

Wybierz Datę:    

        

Białystok (12295)

Dane terminowe dla wybranej stacji. Kliknij datę, aby otrzymać dane z tego terminu dla wszystkich stacji.

TemperaturaZachmurzenieWiatrCiśnienieOpadyPogoda
 Data t td wb tx tn tg rh  Nt Nl Cl Cm Ch ws wd g1 g2 wx mslp ppp ch 24h 12h t ww ww w1 w2  
2019-07-20 23:00:00 13.6 13.4 13.4--- 9910.0wx-1wx--11017.9 999.6 0.6----22----
2019-07-20 22:00:00 13.8 13.5 13.6--- 9810.0wx-0---01017.7 999.4 0.6----22----
2019-07-20 21:00:00 14.3 13.7 13.8--- 9610.0wx-0----1017.4 999.2 0.7---------
2019-07-20 20:00:00 15.2 14.2 14.5--- 9411.0wx-0---01017.2 999.0 0.5----22----
2019-07-20 19:00:00 16.8 15.0 15.5--- 8918.0wx-0---01016.8 998.8 0.3---------
2019-07-20 18:00:00 19.3 16.0 17.0 26.3 17.5- 8130.0wx-wx0---01016.4 998.5 -0.2- 0.012------
2019-07-20 17:00:00 22.0 14.9 17.4--- 6445.0wx-wx1wx--11016.2 998.5 -0.2---------
2019-07-20 16:00:00 23.0 14.3 17.4--- 5850.0wx-wxwx1wx--11016.2 998.5 -0.1---------
2019-07-20 15:00:00 22.9 15.0 17.8--- 6145.0wxwxwxwxwx1wx---1016.4 998.7 0.2---------
2019-07-20 14:00:00 24.7 14.8 18.4--- 5430.0wxwxwxwxwx2wx--21016.3 998.7 0.2---------
2019-07-20 13:00:00 25.2 13.7 18.0--- 4930.0wxwxwxwx2wx--21016.1 998.6 0.1---------
2019-07-20 12:00:00 25.7 13.2 18.0--- 4635.0wxwxwxwx1wx--11016.0 998.5 -0.3- 0.06------
2019-07-20 11:00:00 23.9 14.9 18.1--- 5740.0wxwxwxwx2wx--21016.1 998.5 0.1---------
2019-07-20 10:00:00 24.7 14.2 18.1--- 5227.0wxwxwxwx3wx--31016.1 998.5 0.3---------
2019-07-20 09:00:00 23.7 14.4 17.8--- 5628.0wxwxwxwx3wx--31016.4 998.8 0.8---------
2019-07-20 08:00:00 21.5 15.1 17.3--- 6729.0wx-wx2wx--21016.2 998.4 0.9----22----
2019-07-20 07:00:00 20.3 14.0 16.2--- 6730.0wx-wx2wx--21016.0 998.2 0.9----22----
2019-07-20 06:00:00 17.5 14.2 15.2 17.6 11.1 9 8135.0wx-wx1wx--11016.0 998.0 0.8- 0.012-22--- 13.7
2019-07-20 05:00:00 15.9 14.8 15.1--- 9330.0wx-wx1wx---1015.6 997.5 0.6---------
2019-07-20 04:00:00 13.6 12.8 13.0--- 9530.0wx-wx1wx--11015.5 997.3 0.3----22----
2019-07-20 03:00:00 11.6 11.1 11.2--- 9725.0wx-wx0---01015.6 997.2 0.1----22----
2019-07-20 02:00:00 11.2 10.6 10.7--- 9625.0wx-wx1wx--11015.3 996.9 -0.2----22----
2019-07-20 01:00:00 11.5 10.9 11.0--- 9619.0wx-wx1wx--11015.4 997.0 0.0----22----
2019-07-20 00:00:00 12.5 11.6 11.8--- 9427.0wx-wxwx0---01015.4 997.1 0.2- 0.06-22----
2019-07-19 23:00:00 13.1 11.8 12.2--- 9245.0wx-wxwx1wx---1015.4 997.1 0.5---------
2019-07-19 22:00:00 12.4 11.3 11.6--- 9323.0wx-wx1wx--11015.3 997.0 0.7----22----
2019-07-19 21:00:00 13.0 12.1 12.3--- 9419.0wx-wx0---01015.2 996.9 0.9----22----
2019-07-19 20:00:00 14.0 12.6 13.0--- 9125.0wx-wxwx1wx--11014.8 996.6 0.6---------
2019-07-19 19:00:00 15.4 13.1 13.8--- 8635.0wx-wxwx1wx--11014.4 996.3 0.4---------
2019-07-19 18:00:00 17.6 12.7 14.4 25.0 17.2- 7350.0wx-wxwx0---01013.9 996.0 -0.2- 0.012------
2019-07-19 17:00:00 21.0 12.2 15.5--- 5750.0wx-wx1wx--11013.7 996.0 -0.4---------
2019-07-19 16:00:00 24.3 8.7 15.3--- 3730.0wx-wx2wx--21013.4 995.9 -0.7----22----
2019-07-19 15:00:00 24.8 9.9 16.1--- 3930.0wxwxwxwx1wx--11013.7 996.2 -0.5----22----
2019-07-19 14:00:00 24.3 10.9 16.3--- 4330.0wxwxwx1wx--11013.9 996.4 -0.3----22----
2019-07-19 13:00:00 23.6 8.8 15.1--- 3940.0wxwxwx2wx--21014.2 996.6 -0.4----22----
2019-07-19 12:00:00 23.8 11.1 16.2--- 4535.0wxwxwx3wx--31014.3 996.7 -0.4- 0.06-22----
2019-07-19 11:00:00 23.4 10.1 15.6--- 4340.0wxwxwx3wx--31014.3 996.7 -0.5----22----
2019-07-19 10:00:00 22.5 11.9 16.0--- 5130.0wxwxwx2wx--21014.7 997.0 0.0----22----
2019-07-19 09:00:00 21.1 12.0 15.5--- 5645.0wxwxwx2wx--21014.9 997.1 0.1----22----
2019-07-19 08:00:00 20.1 12.1 15.1--- 6035.0wxwxwx2wx--21015.0 997.2 0.3----22----
2019-07-19 07:00:00 18.9 11.5 14.3--- 6240.0wx-wx2wx--21014.9 997.0 0.3----22----
2019-07-19 06:00:00 17.2 11.7 13.7 19.7 8.7 6 7030.0wxwxwxwx2wx--21015.0 997.0 0.6- 0.012-22--- 7.5
2019-07-19 05:00:00 15.0 12.9 13.5--- 8730.0wxwxwxwx1wx--11015.0 996.9 0.6----22----
2019-07-19 04:00:00 11.9 11.9 11.9--- 1008.0wx-wx0---01015.0 996.7 0.5---wx22--
2019-07-19 03:00:00 9.1 9.1 9.0--- 10010.0wx-wx0---01014.9 996.4 0.1---wx22--
2019-07-19 02:00:00 9.0 8.9 8.9--- 9910.0wx-wx1wx--11014.8 996.3 0.2---wx22--
2019-07-19 01:00:00 9.7 9.6 9.6--- 9910.0wx-wx1wx--11014.7 996.2 0.3---wx22--
2019-07-19 00:00:00 10.6 10.4 10.4--- 9910.0wx-wx0---01014.7 996.3 0.7- 0.06wx22--
4.3 ms

 

Print Friendly, PDF & Email